Time;durP1;ratioP1;P1;durP2;ratioP2;P2;SDS_P1;SDS_P2;PMS_P1;PMS_P2;Temp;Humidity;BMP_temperature;BMP_pressure;BME280_temperature;BME280_humidity;BME280_pressure;Samples;Min_cycle;Max_cycle;Signal;HPM_P1;HPM_P2
2022/01/13 00:00:36;;;;;;;77.50;28.73;;;;;;;-5.59;78.36;102362.53;4502705;31;20438;-70
2022/01/13 00:03:04;;;;;;;77.70;30.58;;;;;;;-5.67;77.97;102355.87;4502562;31;20109;-70
2022/01/13 00:05:31;;;;;;;67.50;28.65;;;;;;;-6.12;80.84;102367.47;4502636;31;20080;-70
2022/01/13 00:07:59;;;;;;;61.30;27.40;;;;;;;-6.02;80.18;102361.47;4502554;31;20087;-70
2022/01/13 00:10:27;;;;;;;63.65;28.58;;;;;;;-5.89;79.91;102369.44;4502579;31;20159;-70
2022/01/13 00:13:03;;;;;;;74.60;29.95;;;;;;;-6.05;80.43;102369.81;4502476;31;20084;-70
2022/01/13 00:18:11;;;;;;;74.28;29.90;;;;;;;-5.77;78.59;102379.84;4502572;31;20623;-70
2022/01/13 00:26:32;;;;;;;72.07;29.50;;;;;;;-6.46;82.93;102373.91;4502454;31;20485;-70
2022/01/13 00:29:02;;;;;;;65.03;28.90;;;;;;;-6.48;83.61;102359.16;4502417;31;20091;-70
2022/01/13 00:31:33;;;;;;;72.60;29.45;;;;;;;-6.64;84.60;102352.69;4502447;31;20096;-70
2022/01/13 00:34:04;;;;;;;72.00;29.17;;;;;;;-6.69;85.52;102355.59;4502327;31;20499;-70
2022/01/13 00:36:36;;;;;;;74.00;29.45;;;;;;;-6.67;86.26;102356.63;4502348;31;20158;-70
2022/01/13 00:39:06;;;;;;;68.18;29.25;;;;;;;-6.76;86.48;102351.56;4502466;31;20100;-70
2022/01/13 00:41:33;;;;;;;70.62;30.62;;;;;;;-6.72;86.99;102352.75;4502165;31;20159;-70
2022/01/13 00:44:06;;;;;;;74.78;28.65;;;;;;;-6.80;87.35;102352.97;4502267;31;20083;-70
2022/01/13 00:46:45;;;;;;;74.55;30.17;;;;;;;-6.72;86.92;102355.31;4502470;31;20084;-70
2022/01/13 00:49:14;;;;;;;69.95;28.87;;;;;;;-6.69;86.40;102360.72;4502420;31;20432;-70
2022/01/13 00:51:42;;;;;;;62.78;28.08;;;;;;;-6.44;84.95;102364.66;4502139;31;20163;-70
2022/01/13 00:54:09;;;;;;;71.15;27.80;;;;;;;-6.36;84.46;102362.78;4502079;31;20096;-70
2022/01/13 00:56:37;;;;;;;63.53;26.37;;;;;;;-6.24;84.01;102365.53;4502144;31;20512;-70
2022/01/13 00:59:10;;;;;;;68.53;27.73;;;;;;;-6.36;83.83;102373.03;4502081;31;20160;-70
2022/01/13 01:01:41;;;;;;;69.15;28.00;;;;;;;-6.20;83.08;102383.88;4502431;31;20087;-70
2022/01/13 01:04:10;;;;;;;69.57;28.62;;;;;;;-6.19;82.81;102384.78;4502109;31;20155;-70
2022/01/13 01:06:38;;;;;;;65.15;26.08;;;;;;;-5.93;81.75;102389.63;4502113;31;20160;-70
2022/01/13 01:09:13;;;;;;;67.60;26.87;;;;;;;-5.51;79.34;102384.66;4502294;31;20130;-70
2022/01/13 01:11:41;;;;;;;66.68;26.80;;;;;;;-5.52;79.20;102390.53;4502099;31;20125;-70
2022/01/13 01:14:08;;;;;;;69.97;28.05;;;;;;;-5.45;79.69;102381.69;4501926;31;20530;-70
2022/01/13 01:16:36;;;;;;;61.37;25.20;;;;;;;-5.45;79.96;102379.13;4501998;31;20083;-70
2022/01/13 01:19:07;;;;;;;66.32;25.83;;;;;;;-5.35;79.26;102379.13;4501822;31;20119;-70
2022/01/13 01:26:50;;;;;;;68.07;24.80;;;;;;;-5.37;79.03;102386.72;4502064;31;20091;-70
2022/01/13 01:31:54;;;;;;;76.37;29.02;;;;;;;-5.29;78.48;102395.97;4501986;31;20392;-70
2022/01/13 01:37:14;;;;;;;77.10;30.17;;;;;;;-5.82;81.52;102391.41;4501959;31;20079;-70
2022/01/13 01:39:43;;;;;;;67.68;26.98;;;;;;;-5.48;78.77;102387.47;4501932;31;20099;-70
2022/01/13 01:42:11;;;;;;;75.62;27.65;;;;;;;-5.38;78.21;102384.91;4501790;31;20137;-70
2022/01/13 01:44:43;;;;;;;66.85;27.58;;;;;;;-5.48;79.16;102372.06;4501855;31;20147;-70
2022/01/13 01:47:15;;;;;;;63.72;27.60;;;;;;;-5.52;78.43;102370.88;4502193;31;20198;-70
2022/01/13 01:49:46;;;;;;;66.03;27.15;;;;;;;-5.59;78.55;102385.66;4501968;31;20412;-70
2022/01/13 01:52:17;;;;;;;68.22;26.48;;;;;;;-5.57;78.17;102384.12;4500991;31;20092;-70
2022/01/13 01:54:45;;;;;;;66.65;26.77;;;;;;;-5.38;76.84;102384.91;4501770;31;20427;-70
2022/01/13 01:57:14;;;;;;;64.80;26.12;;;;;;;-5.42;77.00;102381.97;4502137;31;20408;-70
2022/01/13 01:59:43;;;;;;;65.68;26.45;;;;;;;-5.22;75.43;102381.06;4501893;31;20474;-70
2022/01/13 02:02:12;;;;;;;60.78;24.52;;;;;;;-5.30;76.18;102389.03;4501685;31;20103;-70
2022/01/13 02:04:41;;;;;;;63.87;26.05;;;;;;;-5.45;76.71;102384.25;4501725;31;20568;-70
2022/01/13 02:07:08;;;;;;;64.18;26.48;;;;;;;-5.88;79.23;102388.31;4501688;31;20092;-70
2022/01/13 02:09:37;;;;;;;63.35;24.55;;;;;;;-5.98;79.30;102391.78;4501816;31;20111;-70
2022/01/13 02:12:09;;;;;;;67.03;25.98;;;;;;;-5.93;79.38;102389.63;4501690;31;20465;-70
2022/01/13 02:14:50;;;;;;;60.40;25.80;;;;;;;-5.97;79.53;102390.09;4501512;31;20419;-70
2022/01/13 02:17:26;;;;;;;69.35;26.25;;;;;;;-5.85;80.16;102388.56;4501696;31;20122;-70
2022/01/13 02:19:56;;;;;;;68.25;28.25;;;;;;;-5.78;79.10;102391.78;4501737;31;20477;-70
2022/01/13 02:22:24;;;;;;;70.00;27.20;;;;;;;-5.98;79.26;102386.63;4501502;31;20122;-70
2022/01/13 02:24:52;;;;;;;66.45;26.23;;;;;;;-6.24;80.38;102383.50;4501519;31;20139;-70
2022/01/13 02:27:19;;;;;;;70.82;25.65;;;;;;;-6.23;80.28;102387.84;4501812;31;20095;-70
2022/01/13 02:29:47;;;;;;;64.93;25.67;;;;;;;-6.24;79.95;102386.06;4501485;31;20187;-70
2022/01/13 02:32:15;;;;;;;59.88;24.92;;;;;;;-6.05;79.13;102387.78;4501621;31;20083;-70
2022/01/13 02:34:42;;;;;;;60.70;25.52;;;;;;;-5.86;77.61;102387.69;4501445;31;20114;-70
2022/01/13 02:37:10;;;;;;;64.12;25.92;;;;;;;-5.84;77.30;102395.50;4501503;31;20117;-70
2022/01/13 02:39:38;;;;;;;60.90;25.48;;;;;;;-5.82;77.33;102405.16;4501331;31;20084;-70
2022/01/13 02:42:12;;;;;;;59.55;24.83;;;;;;;-5.92;77.93;102404.25;4501645;31;20477;-70
2022/01/13 02:44:49;;;;;;;63.25;25.85;;;;;;;-5.74;76.71;102403.22;4501670;31;20412;-70
2022/01/13 02:50:09;;;;;;;70.68;27.67;;;;;;;-5.82;78.01;102392.31;4501473;31;20046;-70
2022/01/13 02:52:36;;;;;;;59.58;24.52;;;;;;;-5.88;78.06;102383.19;4501353;31;20162;-70
2022/01/13 02:55:05;;;;;;;57.30;24.70;;;;;;;-5.91;78.97;102380.34;4501341;31;20629;-70
2022/01/13 02:57:33;;;;;;;63.92;28.35;;;;;;;-5.81;78.74;102375.22;4501319;31;20117;-70
2022/01/13 03:00:00;;;;;;;70.25;27.67;;;;;;;-5.95;79.25;102376.66;4501303;31;20111;-70
2022/01/13 03:02:31;;;;;;;71.47;25.70;;;;;;;-5.98;79.68;102366.09;4501162;31;20146;-70
2022/01/13 03:04:59;;;;;;;66.80;26.75;;;;;;;-5.96;79.67;102358.56;4501008;31;20063;-70
2022/01/13 03:07:30;;;;;;;76.53;28.85;;;;;;;-6.02;80.06;102364.94;4501241;31;20092;-70
2022/01/13 03:09:57;;;;;;;67.15;27.95;;;;;;;-5.86;79.22;102377.41;4501155;31;20115;-70
2022/01/13 03:12:26;;;;;;;67.85;28.75;;;;;;;-5.89;79.69;102374.59;4501095;31;20437;-70
2022/01/13 03:14:56;;;;;;;60.40;24.45;;;;;;;-5.96;80.40;102389.37;4501163;31;20443;-70
2022/01/13 03:17:23;;;;;;;57.17;23.30;;;;;;;-5.23;77.35;102387.88;4500950;31;20118;-70
2022/01/13 03:19:51;;;;;;;61.53;23.80;;;;;;;-5.28;76.93;102392.63;4500783;31;20164;-70
2022/01/13 03:22:18;;;;;;;57.50;24.95;;;;;;;-5.25;76.56;102402.25;4500954;31;20126;-70
2022/01/13 03:24:45;;;;;;;65.95;24.52;;;;;;;-4.97;75.87;102394.28;4500877;31;20138;-70
2022/01/13 03:27:19;;;;;;;68.12;25.95;;;;;;;-4.75;74.84;102400.41;4500858;31;20591;-70
2022/01/13 03:29:47;;;;;;;55.20;22.75;;;;;;;-5.38;78.40;102414.84;4500747;31;20087;-70
2022/01/13 03:32:17;;;;;;;60.75;24.50;;;;;;;-5.47;79.84;102417.53;4500976;31;20192;-70
2022/01/13 03:34:44;;;;;;;70.00;24.98;;;;;;;-5.20;78.25;102413.81;4500786;31;20076;-70
2022/01/13 03:37:11;;;;;;;54.50;23.70;;;;;;;-4.78;76.32;102423.28;4500726;31;20156;-70
2022/01/13 03:39:39;;;;;;;55.95;22.55;;;;;;;-5.01;77.86;102417.94;4500741;31;20444;-70
2022/01/13 03:42:06;;;;;;;58.15;23.15;;;;;;;-4.87;77.16;102418.31;4500693;31;20099;-70
2022/01/13 03:44:33;;;;;;;65.62;24.12;;;;;;;-4.68;75.54;102418.12;4500872;31;20084;-70
2022/01/13 03:47:02;;;;;;;56.17;22.48;;;;;;;-4.87;76.93;102414.84;4500656;31;20115;-70
2022/01/13 03:49:31;;;;;;;54.42;22.58;;;;;;;-4.91;77.95;102408.53;4500795;31;20160;-70
2022/01/13 03:52:02;;;;;;;55.42;21.92;;;;;;;-4.70;76.48;102408.50;4500535;31;20450;-70
2022/01/13 03:54:33;;;;;;;66.12;24.30;;;;;;;-4.64;76.32;102411.56;4500313;31;20491;-70
2022/01/13 03:57:38;;;;;;;67.32;24.20;;;;;;;-4.57;75.46;102403.59;4500437;31;20392;-70
2022/01/13 04:00:45;;;;;;;60.72;23.92;;;;;;;-4.77;76.34;102403.63;4500312;31;20478;-70
2022/01/13 04:03:13;;;;;;;64.10;26.25;;;;;;;-5.14;78.79;102400.59;4500409;31;20141;-70
2022/01/13 04:06:21;;;;;;;58.85;24.73;;;;;;;-5.23;79.02;102405.87;4500319;31;20574;-70
2022/01/13 04:08:50;;;;;;;55.63;24.30;;;;;;;-5.00;77.86;102401.75;4434341;32;20103;-70
2022/01/13 04:11:19;;;;;;;65.40;25.67;;;;;;;-4.93;76.93;102398.91;4434509;32;20105;-70
2022/01/13 04:16:19;;;;;;;67.85;28.48;;;;;;;-5.03;77.28;102398.91;4501357;31;20468;-70
2022/01/13 04:18:48;;;;;;;66.00;25.73;;;;;;;-4.94;75.82;102410.88;4502411;31;20079;-70
2022/01/13 04:21:17;;;;;;;72.05;27.60;;;;;;;-4.88;75.64;102413.91;4502303;31;20152;-70
2022/01/13 04:23:45;;;;;;;64.97;27.95;;;;;;;-4.87;75.94;102402.00;4502452;31;20178;-70
2022/01/13 04:26:17;;;;;;;70.90;27.98;;;;;;;-5.18;76.64;102389.16;4502495;31;20203;-70
2022/01/13 04:28:46;;;;;;;64.28;27.65;;;;;;;-5.24;77.10;102368.06;4502513;31;20139;-70
2022/01/13 04:31:13;;;;;;;72.32;28.23;;;;;;;-5.38;78.00;102358.31;4502481;31;20095;-70
2022/01/13 04:33:40;;;;;;;73.95;27.55;;;;;;;-5.31;77.16;102355.50;4502302;31;20142;-70
2022/01/13 04:36:08;;;;;;;66.75;28.92;;;;;;;-5.41;77.36;102351.25;4502669;31;20110;-70
2022/01/13 04:38:35;;;;;;;68.70;28.70;;;;;;;-5.69;79.01;102359.97;4487317;31;20151;-70
2022/01/13 04:41:04;;;;;;;74.35;29.45;;;;;;;-5.96;80.89;102353.44;4502355;31;20123;-70
2022/01/13 04:43:32;;;;;;;75.47;28.90;;;;;;;-6.02;81.12;102354.69;4502256;31;20121;-70
2022/01/13 04:46:00;;;;;;;69.78;27.80;;;;;;;-6.02;80.45;102359.81;4502244;31;20428;-70
2022/01/13 04:48:27;;;;;;;63.45;26.92;;;;;;;-5.72;78.92;102355.50;4502278;31;20091;-70
2022/01/13 04:50:54;;;;;;;80.15;29.45;;;;;;;-5.54;77.40;102354.47;4502166;31;20096;-70
2022/01/13 04:53:21;;;;;;;67.95;27.83;;;;;;;-5.90;79.39;102356.47;4502223;31;20095;-70
2022/01/13 04:55:57;;;;;;;74.55;28.40;;;;;;;-6.14;81.61;102363.91;4501974;31;20076;-70
2022/01/13 04:58:24;;;;;;;62.72;27.02;;;;;;;-6.06;81.49;102372.25;4502201;31;20104;-70
2022/01/13 05:00:51;;;;;;;77.12;29.73;;;;;;;-5.54;78.39;102369.00;4502111;31;20509;-70
2022/01/13 05:03:19;;;;;;;87.62;33.60;;;;;;;-5.83;79.64;102376.75;4502086;31;20096;-70
2022/01/13 05:05:46;;;;;;;76.32;29.40;;;;;;;-6.34;84.31;102374.09;4502006;31;20520;-70
2022/01/13 05:08:13;;;;;;;78.28;29.45;;;;;;;-6.28;83.37;102380.66;4502122;31;20121;-70
2022/01/13 05:10:40;;;;;;;84.03;31.80;;;;;;;-5.86;81.29;102387.69;4501934;31;20142;-70
2022/01/13 05:13:10;;;;;;;84.65;32.28;;;;;;;-5.90;80.47;102393.31;4501865;31;20091;-70
2022/01/13 05:15:40;;;;;;;141.10;50.67;;;;;;;-6.03;81.46;102395.63;4501564;31;20084;-70
2022/01/13 05:20:51;;;;;;;98.95;35.97;;;;;;;-5.71;79.16;102402.59;4502764;31;20119;-70
2022/01/13 05:23:18;;;;;;;76.40;30.50;;;;;;;-5.56;78.95;102406.47;4503005;31;20182;-69
2022/01/13 05:25:45;;;;;;;81.20;31.77;;;;;;;-5.49;79.42;102403.66;4502847;31;20083;-70
2022/01/13 05:28:14;;;;;;;79.25;31.62;;;;;;;-5.52;78.98;102405.94;4502804;31;20096;-70
2022/01/13 05:30:41;;;;;;;78.55;30.08;;;;;;;-5.56;79.32;102411.59;4502829;31;20095;-69
2022/01/13 05:33:09;;;;;;;88.32;32.65;;;;;;;-5.47;79.41;102412.41;4502787;31;20100;-69
2022/01/13 05:35:37;;;;;;;86.72;30.83;;;;;;;-5.35;78.89;102412.53;4502734;31;20084;-69
2022/01/13 05:38:06;;;;;;;78.97;31.52;;;;;;;-5.55;79.14;102421.09;4502804;31;20092;-70
2022/01/13 05:40:35;;;;;;;75.05;29.55;;;;;;;-5.54;79.44;102425.50;4502758;31;20707;-69
2022/01/13 05:43:04;;;;;;;82.25;30.65;;;;;;;-5.54;79.40;102433.19;4502819;31;20104;-69
2022/01/13 05:45:38;;;;;;;77.47;29.98;;;;;;;-5.81;80.46;102419.78;4502782;31;20139;-70
2022/01/13 05:48:07;;;;;;;81.93;32.80;;;;;;;-5.75;79.96;102419.41;4502781;31;20100;-69
2022/01/13 05:50:34;;;;;;;84.95;32.15;;;;;;;-5.89;80.45;102413.09;4502729;31;20777;-70
2022/01/13 05:53:03;;;;;;;80.43;30.70;;;;;;;-6.06;81.98;102408.19;4502029;31;20099;-70
2022/01/13 05:55:30;;;;;;;83.37;30.98;;;;;;;-6.16;82.32;102416.72;4501711;31;20112;-70
2022/01/13 05:57:57;;;;;;;87.45;31.85;;;;;;;-6.03;81.97;102416.16;4501818;31;20123;-70
2022/01/13 06:00:25;;;;;;;82.93;30.12;;;;;;;-5.93;81.11;102412.72;4501661;31;20171;-70
2022/01/13 06:02:53;;;;;;;76.50;29.50;;;;;;;-5.93;80.72;102410.16;4502035;31;20287;-70
2022/01/13 06:05:21;;;;;;;82.50;32.53;;;;;;;-6.24;82.80;102411.72;4501611;31;20109;-71
2022/01/13 06:07:48;;;;;;;90.45;30.10;;;;;;;-6.33;83.20;102410.13;4501686;31;20118;-70
2022/01/13 06:10:19;;;;;;;78.32;30.73;;;;;;;-6.22;82.05;102415.28;4501104;31;20214;-70
2022/01/13 06:12:48;;;;;;;85.80;32.28;;;;;;;-6.12;81.49;102415.34;4500183;31;20159;-70
2022/01/13 06:15:18;;;;;;;80.85;31.75;;;;;;;-6.13;81.40;102413.56;4498586;31;20523;-69
2022/01/13 06:17:48;;;;;;;85.00;29.40;;;;;;;-5.88;80.23;102408.84;4499497;31;75757;-70
2022/01/13 06:20:16;;;;;;;69.65;28.08;;;;;;;-5.81;79.99;102412.06;4501474;31;20118;-69
2022/01/13 06:22:45;;;;;;;76.28;29.45;;;;;;;-5.77;79.89;102402.97;4500164;31;20183;-69
2022/01/13 06:25:14;;;;;;;78.93;29.55;;;;;;;-5.61;79.26;102406.09;4490358;31;20096;-69
2022/01/13 06:27:41;;;;;;;73.65;28.33;;;;;;;-5.55;79.39;102395.41;4492821;31;20088;-69
2022/01/13 06:30:30;;;;;;;79.85;29.55;;;;;;;-5.46;79.58;102393.66;4499002;31;20103;-69
2022/01/13 06:32:57;;;;;;;74.93;29.58;;;;;;;-5.57;80.63;102391.84;4485899;31;20084;-69
2022/01/13 06:35:25;;;;;;;78.62;30.73;;;;;;;-5.63;81.75;102402.47;4485361;31;20076;-70
2022/01/13 06:37:53;;;;;;;106.80;31.92;;;;;;;-5.49;82.00;102401.09;4486702;31;20452;-69
2022/01/13 06:40:20;;;;;;;86.95;32.88;;;;;;;-5.41;81.22;102401.72;4499746;31;20121;-70
2022/01/13 06:42:47;;;;;;;91.20;33.85;;;;;;;-5.46;80.98;102401.34;4501349;31;20103;-70
2022/01/13 06:45:14;;;;;;;73.40;29.20;;;;;;;-5.44;80.55;102397.25;4501155;31;20800;-69
2022/01/13 06:47:42;;;;;;;107.15;36.53;;;;;;;-5.39;80.39;102402.78;4502039;31;20103;-70
2022/01/13 06:50:11;;;;;;;91.50;35.95;;;;;;;-5.53;81.21;102404.16;4501472;31;20484;-70
2022/01/13 06:52:39;;;;;;;101.07;38.40;;;;;;;-5.47;82.05;102408.94;4502084;31;20099;-70
2022/01/13 06:55:07;;;;;;;95.28;38.63;;;;;;;-5.62;82.92;102409.44;4501819;31;20148;-70
2022/01/13 06:57:34;;;;;;;98.28;38.22;;;;;;;-5.62;82.77;102408.50;4494198;31;20122;-69
2022/01/13 07:00:03;;;;;;;103.30;38.92;;;;;;;-5.60;83.16;102409.56;4484984;31;20211;-70
2022/01/13 07:02:32;;;;;;;102.60;39.55;;;;;;;-5.74;83.69;102410.03;4485074;31;20087;-69
2022/01/13 07:04:59;;;;;;;103.10;39.42;;;;;;;-5.98;85.03;102411.41;4485274;31;20131;-69
2022/01/13 07:07:33;;;;;;;105.60;43.92;;;;;;;-6.08;85.66;102420.91;4485237;31;20100;-67
2022/01/13 07:10:08;;;;;;;106.97;40.20;;;;;;;-6.07;85.63;102416.66;4485615;31;20151;-69
2022/01/13 07:12:36;;;;;;;103.70;38.97;;;;;;;-6.12;86.41;102400.84;4489170;31;20175;-68
2022/01/13 07:15:05;;;;;;;115.55;43.92;;;;;;;-6.06;86.37;102415.88;4484891;31;20201;-68
2022/01/13 07:17:33;;;;;;;120.00;44.03;;;;;;;-5.89;85.49;102410.53;4470014;31;20101;-70
2022/01/13 07:20:01;;;;;;;107.28;42.60;;;;;;;-5.81;85.15;102412.06;4484926;31;20164;-70
2022/01/13 07:22:28;;;;;;;113.05;41.50;;;;;;;-5.84;85.62;102411.81;4484744;31;20555;-70
2022/01/13 07:24:55;;;;;;;119.22;43.55;;;;;;;-5.83;86.46;102421.31;4484829;31;20103;-70
2022/01/13 07:27:23;;;;;;;109.22;41.25;;;;;;;-5.62;86.12;102426.47;4484814;31;20409;-70
2022/01/13 07:29:50;;;;;;;95.00;38.50;;;;;;;-5.61;87.12;102420.59;4484860;31;20167;-68
2022/01/13 07:32:17;;;;;;;99.50;38.22;;;;;;;-5.44;87.32;102417.81;4485001;31;20103;-70
2022/01/13 07:34:44;;;;;;;95.55;37.38;;;;;;;-5.35;87.44;102418.56;4493294;31;20188;-69
2022/01/13 07:37:15;;;;;;;102.68;37.35;;;;;;;-5.37;87.79;102420.13;4488336;31;20587;-69
2022/01/13 07:39:42;;;;;;;106.97;37.65;;;;;;;-5.31;87.94;102435.12;4484500;31;20502;-70
2022/01/13 07:42:11;;;;;;;109.12;38.35;;;;;;;-5.13;87.75;102430.66;4484462;31;20096;-68
2022/01/13 07:44:39;;;;;;;112.55;37.83;;;;;;;-5.11;87.96;102424.88;4484768;31;20076;-69
2022/01/13 07:47:06;;;;;;;104.03;39.30;;;;;;;-5.00;87.72;102437.72;4485309;31;20755;-69
2022/01/13 07:49:37;;;;;;;103.10;38.75;;;;;;;-5.02;87.68;102437.56;4485533;31;20107;-68
2022/01/13 07:52:04;;;;;;;97.07;38.15;;;;;;;-5.00;87.85;102440.31;4486705;31;20096;-68
2022/01/13 07:54:32;;;;;;;101.00;38.42;;;;;;;-4.87;87.19;102435.41;4487583;31;20115;-69
2022/01/13 07:57:01;;;;;;;114.45;42.60;;;;;;;-4.84;87.10;102443.34;4489434;31;20144;-69
2022/01/13 07:59:29;;;;;;;112.80;42.83;;;;;;;-4.81;86.99;102439.34;4471962;31;20138;-69
2022/01/13 08:01:57;;;;;;;117.60;42.10;;;;;;;-4.70;86.88;102441.94;4499840;31;20478;-70
2022/01/13 08:04:26;;;;;;;103.10;39.13;;;;;;;-4.72;87.24;102441.81;4503250;31;20464;-70
2022/01/13 08:06:53;;;;;;;113.12;40.97;;;;;;;-4.62;86.47;102431.50;4503051;31;20083;-70
2022/01/13 08:09:23;;;;;;;108.63;40.85;;;;;;;-4.49;86.16;102435.06;4503315;31;20095;-69
2022/01/13 08:11:50;;;;;;;106.87;37.72;;;;;;;-4.45;86.04;102435.47;4503343;31;20103;-70
2022/01/13 08:14:18;;;;;;;107.28;41.25;;;;;;;-4.47;86.09;102438.69;4503053;31;20088;-70
2022/01/13 08:16:45;;;;;;;131.18;41.92;;;;;;;-4.42;85.48;102442.50;4503281;31;20172;-69
2022/01/13 08:22:10;;;;;;;111.43;39.40;;;;;;;-4.22;84.84;102442.47;4480968;31;20122;-70
2022/01/13 08:24:37;;;;;;;102.00;39.08;;;;;;;-3.94;84.17;102436.94;4503241;31;20096;-71
2022/01/13 08:27:05;;;;;;;121.40;39.25;;;;;;;-3.81;83.57;102443.97;4503156;31;20118;-70
2022/01/13 08:29:33;;;;;;;100.82;35.38;;;;;;;-3.60;82.64;102448.25;4503015;31;20103;-70
2022/01/13 08:32:01;;;;;;;84.47;32.28;;;;;;;-3.37;82.53;102440.59;4503325;31;20156;-70
2022/01/13 08:34:28;;;;;;;97.12;34.08;;;;;;;-3.21;82.33;102452.09;4503220;31;20102;-69
2022/01/13 08:36:55;;;;;;;88.90;31.37;;;;;;;-3.29;82.47;102448.91;4503097;31;20096;-70
2022/01/13 08:39:23;;;;;;;78.32;30.92;;;;;;;-3.33;82.50;102440.84;4503238;31;20458;-70
2022/01/13 08:41:51;;;;;;;88.55;32.97;;;;;;;-3.22;83.07;102442.53;4503135;31;20099;-70
2022/01/13 08:44:18;;;;;;;88.25;31.35;;;;;;;-3.30;83.29;102429.06;4502806;31;20148;-70
2022/01/13 08:46:45;;;;;;;95.15;35.03;;;;;;;-3.07;82.53;102435.06;4502043;31;20468;-71
2022/01/13 08:49:12;;;;;;;98.62;36.42;;;;;;;-3.11;82.30;102431.38;4502346;31;20142;-71
2022/01/13 08:51:40;;;;;;;88.85;34.00;;;;;;;-3.03;82.44;102434.56;4501997;31;20159;-70
2022/01/13 08:54:07;;;;;;;87.72;33.53;;;;;;;-2.90;82.21;102437.25;4493168;31;20360;-70
2022/01/13 08:56:34;;;;;;;99.05;32.70;;;;;;;-2.62;81.96;102432.47;4497404;31;20152;-71
2022/01/13 08:59:01;;;;;;;92.37;32.22;;;;;;;-2.45;82.14;102429.44;4501308;31;20092;-71
2022/01/13 09:01:30;;;;;;;91.80;30.45;;;;;;;-2.24;81.85;102431.81;4502553;31;20752;-71
2022/01/13 09:03:58;;;;;;;83.68;29.92;;;;;;;-1.99;81.10;102437.06;4502907;31;20148;-71
2022/01/13 09:06:25;;;;;;;82.82;31.77;;;;;;;-1.77;80.46;102431.72;4502733;31;20092;-70
2022/01/13 09:08:53;;;;;;;86.05;29.25;;;;;;;-1.53;79.87;102427.38;4498817;31;20777;-70
2022/01/13 09:11:20;;;;;;;91.15;26.75;;;;;;;-1.35;79.16;102425.19;4500882;31;20460;-70
2022/01/13 09:13:47;;;;;;;69.55;25.55;;;;;;;-1.33;80.47;102421.91;4502751;31;20087;-69
2022/01/13 09:16:16;;;;;;;74.43;27.00;;;;;;;-0.99;80.14;102421.59;4500722;31;20435;-69
2022/01/13 09:21:27;;;;;;;56.22;21.75;;;;;;;-0.50;81.02;102419.69;4487068;31;20091;-69
2022/01/13 09:23:55;;;;;;;50.25;18.95;;;;;;;-0.08;80.90;102421.56;4486984;31;20077;-69
2022/01/13 09:26:23;;;;;;;34.33;11.73;;;;;;;0.33;79.83;102417.22;4486549;31;20491;-70
2022/01/13 09:28:52;;;;;;;37.00;13.20;;;;;;;0.69;79.25;102415.97;4486917;31;20118;-69
2022/01/13 09:31:21;;;;;;;54.50;16.12;;;;;;;0.92;79.41;102412.19;4493755;31;20103;-70
2022/01/13 09:33:49;;;;;;;44.78;15.43;;;;;;;1.25;77.69;102423.66;4493496;31;20076;-70
2022/01/13 09:36:17;;;;;;;40.20;15.30;;;;;;;1.44;77.05;102425.63;4493444;31;20148;-70
2022/01/13 09:38:49;;;;;;;34.95;13.85;;;;;;;1.57;76.65;102430.72;4491199;31;20148;-68
2022/01/13 09:41:17;;;;;;;26.50;12.25;;;;;;;1.73;76.23;102434.19;4493593;31;20148;-68
2022/01/13 09:43:46;;;;;;;42.10;16.25;;;;;;;1.77;75.80;102434.47;4492837;31;20079;-68
2022/01/13 09:46:13;;;;;;;42.88;16.23;;;;;;;1.79;76.31;102439.72;4490280;31;20482;-69
2022/01/13 09:48:41;;;;;;;42.62;15.05;;;;;;;1.96;75.54;102435.50;4485872;31;20108;-70
2022/01/13 09:51:08;;;;;;;43.87;16.33;;;;;;;2.13;74.87;102427.81;4485833;31;20473;-69
2022/01/13 09:53:37;;;;;;;50.33;15.68;;;;;;;2.21;75.01;102425.63;4484849;31;20149;-70
2022/01/13 09:56:04;;;;;;;31.00;13.43;;;;;;;2.41;73.28;102413.72;4484796;31;20118;-70
2022/01/13 09:58:32;;;;;;;34.08;14.43;;;;;;;2.47;73.08;102408.81;4484043;31;20123;-69
2022/01/13 10:00:59;;;;;;;43.65;15.48;;;;;;;2.50;72.90;102397.69;4484049;31;20096;-70
2022/01/13 10:03:33;;;;;;;40.55;15.95;;;;;;;2.41;73.46;102403.31;4484101;31;20491;-70
2022/01/13 10:06:10;;;;;;;39.45;15.85;;;;;;;2.53;73.22;102400.47;4486123;31;20091;-70
2022/01/13 10:08:47;;;;;;;39.58;14.93;;;;;;;2.58;72.90;102407.72;4491962;31;20092;-70
2022/01/13 10:11:54;;;;;;;27.85;13.15;;;;;;;2.62;72.28;102396.63;4500035;31;20211;-70
2022/01/13 10:17:13;;;;;;;29.75;12.18;;;;;;;2.87;71.28;102388.41;4496881;31;20118;-71
2022/01/13 10:19:42;;;;;;;27.05;11.15;;;;;;;3.20;70.00;102388.31;4501889;31;20147;-69
2022/01/13 10:22:12;;;;;;;31.87;11.95;;;;;;;3.15;69.84;102384.59;4502393;31;20091;-70
2022/01/13 10:24:45;;;;;;;32.08;13.45;;;;;;;3.31;69.84;102379.31;4502398;31;20075;-70
2022/01/13 10:27:14;;;;;;;28.62;12.90;;;;;;;3.47;69.34;102370.56;4502126;31;20132;-71
2022/01/13 10:29:43;;;;;;;30.92;12.55;;;;;;;3.98;67.92;102376.47;4501924;31;20099;-71
2022/01/13 10:32:16;;;;;;;24.20;10.95;;;;;;;3.88;67.77;102363.81;4499126;31;20133;-70
2022/01/13 10:34:47;;;;;;;24.63;11.15;;;;;;;4.15;66.57;102377.25;4498872;31;20132;-70
2022/01/13 10:37:19;;;;;;;39.47;16.17;;;;;;;4.28;65.41;102366.56;4501708;31;20103;-72
2022/01/13 10:39:49;;;;;;;25.98;11.70;;;;;;;4.75;64.16;102359.94;4502177;31;20150;-72
2022/01/13 10:43:15;;;;;;;32.97;13.50;;;;;;;4.78;63.99;102360.09;4502073;31;20091;-71
2022/01/13 10:45:28;;;;;;;31.90;12.32;;;;;;;5.13;62.50;102345.03;4495768;31;20096;-71
2022/01/13 10:47:57;;;;;;;23.58;10.80;;;;;;;5.27;61.60;102340.38;4501989;31;20088;-71
2022/01/13 10:50:41;;;;;;;28.17;11.50;;;;;;;5.69;60.09;102340.31;4501989;31;20616;-71
2022/01/13 10:53:16;;;;;;;27.35;12.82;;;;;;;5.63;59.68;102338.34;4496157;31;20145;-72
2022/01/13 10:55:50;;;;;;;25.73;11.88;;;;;;;5.20;60.84;102349.66;4491439;31;20471;-71
2022/01/13 10:58:23;;;;;;;27.10;11.35;;;;;;;5.84;59.19;102340.91;4494372;31;20091;-71
2022/01/13 11:00:51;;;;;;;26.42;10.95;;;;;;;6.33;57.23;102334.06;4495367;31;20111;-72
2022/01/13 11:03:21;;;;;;;32.72;13.02;;;;;;;6.64;56.31;102336.94;4498914;31;20159;-72
2022/01/13 11:05:49;;;;;;;32.10;13.60;;;;;;;6.49;56.25;102340.72;4497497;31;20454;-71
2022/01/13 11:08:40;;;;;;;27.42;12.68;;;;;;;7.47;54.20;102338.84;4497334;31;20101;-71
2022/01/13 11:11:17;;;;;;;34.78;14.13;;;;;;;7.00;54.56;102338.16;4486727;31;20087;-72
2022/01/13 11:13:53;;;;;;;33.25;15.02;;;;;;;6.53;56.03;102342.59;4493308;31;20107;-71
2022/01/13 11:16:21;;;;;;;31.83;14.40;;;;;;;6.76;55.22;102338.19;4485967;31;20080;-71
2022/01/13 11:18:49;;;;;;;30.77;15.23;;;;;;;7.17;53.93;102327.41;4485735;31;20092;-72
2022/01/13 11:21:17;;;;;;;30.27;13.98;;;;;;;7.09;54.15;102328.84;4485954;31;20770;-72
2022/01/13 11:23:48;;;;;;;37.97;16.65;;;;;;;7.26;54.61;102328.53;4490176;31;20168;-71
2022/01/13 11:26:16;;;;;;;34.42;15.38;;;;;;;6.80;55.49;102324.38;4499735;31;20104;-71
2022/01/13 11:28:43;;;;;;;36.28;17.25;;;;;;;7.02;54.01;102321.63;4494959;31;20447;-71
2022/01/13 11:31:11;;;;;;;35.13;17.90;;;;;;;6.28;56.37;102312.91;4490897;31;20100;-70
2022/01/13 11:33:39;;;;;;;37.70;16.87;;;;;;;6.40;56.31;102310.75;4490611;31;20134;-70
2022/01/13 11:36:08;;;;;;;32.80;15.80;;;;;;;6.70;55.32;102303.06;4490873;31;20076;-71
2022/01/13 11:38:35;;;;;;;36.97;17.15;;;;;;;6.32;56.03;102314.81;4490860;31;20091;-70
2022/01/13 11:41:06;;;;;;;32.22;15.15;;;;;;;6.50;56.59;102309.34;4492451;31;20104;-71
2022/01/13 11:43:39;;;;;;;36.55;16.70;;;;;;;6.81;54.31;102316.53;4499704;31;20160;-72
2022/01/13 11:46:18;;;;;;;36.10;17.37;;;;;;;6.54;55.96;102326.97;4504154;31;20174;-71
2022/01/13 11:49:09;;;;;;;42.53;16.42;;;;;;;7.47;53.54;102323.09;4497872;31;20148;-70
2022/01/13 11:51:58;;;;;;;37.15;15.00;;;;;;;7.75;53.09;102325.75;4497839;31;20155;-71
2022/01/13 11:54:34;;;;;;;32.00;14.38;;;;;;;8.38;51.77;102327.63;4497214;31;20172;-71
2022/01/13 11:57:25;;;;;;;28.80;13.82;;;;;;;8.19;50.63;102318.28;4504278;31;20087;-71